sensor_id;sensor_type;location;lat;lon;timestamp;pressure;altitude;pressure_sealevel;temperature;humidity
7178;BME280;3630;42.146;24.756;2023-02-17T00:01:19;100480.94;;;4.53;67.39
7178;BME280;3630;42.146;24.756;2023-02-17T00:03:46;100467.06;;;4.48;67.50
7178;BME280;3630;42.146;24.756;2023-02-17T00:06:16;100469.06;;;4.53;68.03
7178;BME280;3630;42.146;24.756;2023-02-17T00:08:44;100469.00;;;4.52;67.42
7178;BME280;3630;42.146;24.756;2023-02-17T00:11:10;100467.94;;;4.48;67.49
7178;BME280;3630;42.146;24.756;2023-02-17T00:13:38;100462.63;;;4.44;67.80
7178;BME280;3630;42.146;24.756;2023-02-17T00:16:06;100449.72;;;4.41;68.30
7178;BME280;3630;42.146;24.756;2023-02-17T00:18:33;100451.31;;;4.39;68.09
7178;BME280;3630;42.146;24.756;2023-02-17T00:21:00;100455.06;;;4.45;68.33
7178;BME280;3630;42.146;24.756;2023-02-17T00:23:28;100455.94;;;4.46;67.27
7178;BME280;3630;42.146;24.756;2023-02-17T00:25:55;100452.44;;;4.44;67.63
7178;BME280;3630;42.146;24.756;2023-02-17T00:28:21;100452.91;;;4.37;68.29
7178;BME280;3630;42.146;24.756;2023-02-17T00:30:48;100454.47;;;4.35;67.85
7178;BME280;3630;42.146;24.756;2023-02-17T00:33:15;100450.06;;;4.32;68.64
7178;BME280;3630;42.146;24.756;2023-02-17T00:35:44;100454.47;;;4.35;68.09
7178;BME280;3630;42.146;24.756;2023-02-17T00:38:10;100446.59;;;4.30;68.06
7178;BME280;3630;42.146;24.756;2023-02-17T00:40:39;100436.69;;;4.20;67.98
7178;BME280;3630;42.146;24.756;2023-02-17T00:43:06;100440.38;;;4.25;68.23
7178;BME280;3630;42.146;24.756;2023-02-17T00:45:33;100432.44;;;4.21;68.33
7178;BME280;3630;42.146;24.756;2023-02-17T00:48:00;100433.09;;;4.16;68.46
7178;BME280;3630;42.146;24.756;2023-02-17T00:50:27;100427.91;;;4.15;68.57
7178;BME280;3630;42.146;24.756;2023-02-17T00:52:54;100430.38;;;4.13;68.48
7178;BME280;3630;42.146;24.756;2023-02-17T00:55:20;100420.13;;;4.12;68.88
7178;BME280;3630;42.146;24.756;2023-02-17T00:57:49;100419.94;;;4.09;69.16
7178;BME280;3630;42.146;24.756;2023-02-17T01:00:16;100414.94;;;4.10;69.22
7178;BME280;3630;42.146;24.756;2023-02-17T01:02:43;100413.28;;;4.11;68.71
7178;BME280;3630;42.146;24.756;2023-02-17T01:05:10;100409.25;;;4.14;68.86
7178;BME280;3630;42.146;24.756;2023-02-17T01:07:37;100414.34;;;4.14;68.26
7178;BME280;3630;42.146;24.756;2023-02-17T01:10:04;100408.19;;;4.11;68.65
7178;BME280;3630;42.146;24.756;2023-02-17T01:12:31;100403.00;;;4.09;68.71
7178;BME280;3630;42.146;24.756;2023-02-17T01:14:59;100403.09;;;4.11;68.61
7178;BME280;3630;42.146;24.756;2023-02-17T01:17:26;100396.44;;;4.13;68.60
7178;BME280;3630;42.146;24.756;2023-02-17T01:19:53;100399.97;;;4.00;69.17
7178;BME280;3630;42.146;24.756;2023-02-17T01:22:20;100391.88;;;4.07;70.00
7178;BME280;3630;42.146;24.756;2023-02-17T01:24:47;100388.09;;;4.15;68.73
7178;BME280;3630;42.146;24.756;2023-02-17T01:27:13;100387.72;;;4.24;68.78
7178;BME280;3630;42.146;24.756;2023-02-17T01:29:40;100385.00;;;4.21;68.26
7178;BME280;3630;42.146;24.756;2023-02-17T01:32:10;100389.69;;;4.13;68.86
7178;BME280;3630;42.146;24.756;2023-02-17T01:34:37;100375.50;;;3.88;69.21
7178;BME280;3630;42.146;24.756;2023-02-17T01:37:04;100363.69;;;3.88;69.79
7178;BME280;3630;42.146;24.756;2023-02-17T01:39:31;100352.13;;;3.79;69.73
7178;BME280;3630;42.146;24.756;2023-02-17T01:41:57;100374.03;;;3.91;69.76
7178;BME280;3630;42.146;24.756;2023-02-17T01:44:25;100365.25;;;3.86;69.61
7178;BME280;3630;42.146;24.756;2023-02-17T01:46:53;100362.81;;;3.73;70.12
7178;BME280;3630;42.146;24.756;2023-02-17T01:49:28;100368.63;;;3.71;70.17
7178;BME280;3630;42.146;24.756;2023-02-17T01:52:01;100361.13;;;3.74;70.56
7178;BME280;3630;42.146;24.756;2023-02-17T01:54:34;100363.00;;;3.76;71.02
7178;BME280;3630;42.146;24.756;2023-02-17T01:57:03;100367.97;;;3.75;70.66
7178;BME280;3630;42.146;24.756;2023-02-17T01:59:31;100357.81;;;3.75;70.56
7178;BME280;3630;42.146;24.756;2023-02-17T02:02:00;100360.47;;;3.76;70.49
7178;BME280;3630;42.146;24.756;2023-02-17T02:04:32;100354.50;;;3.76;70.63
7178;BME280;3630;42.146;24.756;2023-02-17T02:06:59;100349.47;;;3.77;70.68
7178;BME280;3630;42.146;24.756;2023-02-17T02:09:29;100343.44;;;3.75;70.77
7178;BME280;3630;42.146;24.756;2023-02-17T02:11:57;100347.28;;;3.69;70.74
7178;BME280;3630;42.146;24.756;2023-02-17T02:14:25;100342.31;;;3.70;70.69
7178;BME280;3630;42.146;24.756;2023-02-17T02:17:00;100348.00;;;3.66;71.13
7178;BME280;3630;42.146;24.756;2023-02-17T02:20:02;100342.66;;;3.62;71.20
7178;BME280;3630;42.146;24.756;2023-02-17T02:22:45;100347.63;;;3.60;71.21
7178;BME280;3630;42.146;24.756;2023-02-17T02:25:31;100347.94;;;3.65;71.12
7178;BME280;3630;42.146;24.756;2023-02-17T02:28:13;100345.22;;;3.62;71.22
7178;BME280;3630;42.146;24.756;2023-02-17T02:31:02;100344.78;;;3.54;71.09
7178;BME280;3630;42.146;24.756;2023-02-17T02:33:38;100337.16;;;3.54;71.33
7178;BME280;3630;42.146;24.756;2023-02-17T02:36:11;100339.69;;;3.54;71.10
7178;BME280;3630;42.146;24.756;2023-02-17T02:38:41;100347.75;;;3.47;71.52
7178;BME280;3630;42.146;24.756;2023-02-17T02:41:12;100355.34;;;3.47;71.15
7178;BME280;3630;42.146;24.756;2023-02-17T02:43:41;100346.00;;;3.46;71.59
7178;BME280;3630;42.146;24.756;2023-02-17T02:46:08;100349.69;;;3.51;71.32
7178;BME280;3630;42.146;24.756;2023-02-17T02:48:36;100331.44;;;3.43;71.28
7178;BME280;3630;42.146;24.756;2023-02-17T02:51:20;100356.16;;;3.61;70.73
7178;BME280;3630;42.146;24.756;2023-02-17T02:54:09;100351.34;;;3.50;71.12
7178;BME280;3630;42.146;24.756;2023-02-17T02:56:49;100354.22;;;3.42;70.96
7178;BME280;3630;42.146;24.756;2023-02-17T02:59:28;100355.09;;;3.42;71.59
7178;BME280;3630;42.146;24.756;2023-02-17T03:02:03;100353.25;;;3.40;71.53
7178;BME280;3630;42.146;24.756;2023-02-17T03:04:36;100345.88;;;3.30;71.43
7178;BME280;3630;42.146;24.756;2023-02-17T03:07:10;100346.50;;;3.26;71.51
7178;BME280;3630;42.146;24.756;2023-02-17T03:09:46;100326.25;;;3.13;72.09
7178;BME280;3630;42.146;24.756;2023-02-17T03:12:13;100345.06;;;3.16;72.01
7178;BME280;3630;42.146;24.756;2023-02-17T03:14:41;100337.00;;;3.09;72.41
7178;BME280;3630;42.146;24.756;2023-02-17T03:17:08;100334.28;;;3.06;72.61
7178;BME280;3630;42.146;24.756;2023-02-17T03:19:37;100337.63;;;3.05;72.71
7178;BME280;3630;42.146;24.756;2023-02-17T03:22:08;100340.34;;;3.08;72.95
7178;BME280;3630;42.146;24.756;2023-02-17T03:24:35;100343.56;;;3.05;72.90
7178;BME280;3630;42.146;24.756;2023-02-17T03:27:02;100338.22;;;3.01;72.83
7178;BME280;3630;42.146;24.756;2023-02-17T03:29:29;100340.41;;;2.94;72.62
7178;BME280;3630;42.146;24.756;2023-02-17T03:31:56;100330.25;;;2.94;73.07
7178;BME280;3630;42.146;24.756;2023-02-17T03:34:23;100338.03;;;2.97;73.17
7178;BME280;3630;42.146;24.756;2023-02-17T03:36:51;100344.69;;;2.95;73.21
7178;BME280;3630;42.146;24.756;2023-02-17T03:39:17;100352.31;;;2.95;72.99
7178;BME280;3630;42.146;24.756;2023-02-17T03:41:44;100351.94;;;2.89;72.80
7178;BME280;3630;42.146;24.756;2023-02-17T03:44:12;100360.94;;;2.84;73.21
7178;BME280;3630;42.146;24.756;2023-02-17T03:46:39;100352.19;;;2.79;73.41
7178;BME280;3630;42.146;24.756;2023-02-17T03:49:06;100344.13;;;2.72;73.93
7178;BME280;3630;42.146;24.756;2023-02-17T03:51:32;100356.00;;;2.73;74.02
7178;BME280;3630;42.146;24.756;2023-02-17T03:54:01;100355.44;;;2.64;73.91
7178;BME280;3630;42.146;24.756;2023-02-17T03:56:28;100355.44;;;2.64;74.23
7178;BME280;3630;42.146;24.756;2023-02-17T03:58:54;100346.66;;;2.59;74.21
7178;BME280;3630;42.146;24.756;2023-02-17T04:01:22;100358.69;;;2.48;74.14
7178;BME280;3630;42.146;24.756;2023-02-17T04:03:49;100347.13;;;2.38;75.16
7178;BME280;3630;42.146;24.756;2023-02-17T04:06:16;100352.97;;;2.37;75.02
7178;BME280;3630;42.146;24.756;2023-02-17T04:08:43;100353.47;;;2.32;75.24
7178;BME280;3630;42.146;24.756;2023-02-17T04:11:11;100343.13;;;2.29;75.72
7178;BME280;3630;42.146;24.756;2023-02-17T04:13:38;100338.66;;;2.25;76.50
7178;BME280;3630;42.146;24.756;2023-02-17T04:16:06;100335.13;;;2.23;76.60
7178;BME280;3630;42.146;24.756;2023-02-17T04:18:34;100336.00;;;2.23;76.64
7178;BME280;3630;42.146;24.756;2023-02-17T04:21:01;100349.00;;;2.28;76.63
7178;BME280;3630;42.146;24.756;2023-02-17T04:23:28;100362.72;;;2.31;76.18
7178;BME280;3630;42.146;24.756;2023-02-17T04:25:55;100351.25;;;2.10;76.63
7178;BME280;3630;42.146;24.756;2023-02-17T04:28:23;100343.63;;;2.10;77.14
7178;BME280;3630;42.146;24.756;2023-02-17T04:30:50;100344.03;;;2.16;77.25
7178;BME280;3630;42.146;24.756;2023-02-17T04:33:17;100343.53;;;2.22;77.33
7178;BME280;3630;42.146;24.756;2023-02-17T04:35:45;100345.66;;;2.29;77.08
7178;BME280;3630;42.146;24.756;2023-02-17T04:38:12;100345.66;;;2.29;76.97
7178;BME280;3630;42.146;24.756;2023-02-17T04:40:39;100344.47;;;2.37;76.30
7178;BME280;3630;42.146;24.756;2023-02-17T04:43:06;100338.81;;;2.41;76.16
7178;BME280;3630;42.146;24.756;2023-02-17T04:45:35;100337.94;;;2.41;75.95
7178;BME280;3630;42.146;24.756;2023-02-17T04:48:02;100329.66;;;2.43;76.24
7178;BME280;3630;42.146;24.756;2023-02-17T04:50:29;100336.47;;;2.44;75.73
7178;BME280;3630;42.146;24.756;2023-02-17T04:52:56;100335.59;;;2.44;75.56
7178;BME280;3630;42.146;24.756;2023-02-17T04:55:23;100324.06;;;2.49;75.75
7178;BME280;3630;42.146;24.756;2023-02-17T04:57:49;100324.84;;;2.48;75.71
7178;BME280;3630;42.146;24.756;2023-02-17T05:00:17;100327.69;;;2.52;75.72
7178;BME280;3630;42.146;24.756;2023-02-17T05:02:45;100326.53;;;2.47;75.30
7178;BME280;3630;42.146;24.756;2023-02-17T05:05:12;100331.28;;;2.43;75.12
7178;BME280;3630;42.146;24.756;2023-02-17T05:07:40;100332.59;;;2.36;74.97
7178;BME280;3630;42.146;24.756;2023-02-17T05:10:07;100312.25;;;2.08;75.49
7178;BME280;3630;42.146;24.756;2023-02-17T05:12:34;100324.81;;;2.07;76.32
7178;BME280;3630;42.146;24.756;2023-02-17T05:15:01;100328.25;;;2.07;76.61
7178;BME280;3630;42.146;24.756;2023-02-17T05:17:28;100331.84;;;2.11;76.70
7178;BME280;3630;42.146;24.756;2023-02-17T05:19:56;100336.81;;;2.09;76.08
7178;BME280;3630;42.146;24.756;2023-02-17T05:22:23;100326.31;;;2.03;76.93
7178;BME280;3630;42.146;24.756;2023-02-17T05:24:50;100322.41;;;2.08;76.95
7178;BME280;3630;42.146;24.756;2023-02-17T05:27:17;100320.22;;;2.14;77.30
7178;BME280;3630;42.146;24.756;2023-02-17T05:29:45;100331.75;;;2.22;76.78
7178;BME280;3630;42.146;24.756;2023-02-17T05:32:11;100334.44;;;2.25;76.25
7178;BME280;3630;42.146;24.756;2023-02-17T05:34:38;100338.31;;;2.33;76.27
7178;BME280;3630;42.146;24.756;2023-02-17T05:37:06;100339.59;;;2.40;75.72
7178;BME280;3630;42.146;24.756;2023-02-17T05:39:33;100348.66;;;2.50;75.30
7178;BME280;3630;42.146;24.756;2023-02-17T05:42:00;100346.44;;;2.41;74.95
7178;BME280;3630;42.146;24.756;2023-02-17T05:44:27;100349.63;;;2.52;74.99
7178;BME280;3630;42.146;24.756;2023-02-17T05:46:54;100335.06;;;2.62;74.95
7178;BME280;3630;42.146;24.756;2023-02-17T05:49:21;100334.53;;;2.68;74.52
7178;BME280;3630;42.146;24.756;2023-02-17T05:51:48;100337.28;;;2.71;74.56
7178;BME280;3630;42.146;24.756;2023-02-17T05:54:16;100350.03;;;2.85;73.65
7178;BME280;3630;42.146;24.756;2023-02-17T05:56:43;100358.59;;;2.87;73.34
7178;BME280;3630;42.146;24.756;2023-02-17T05:59:10;100354.25;;;2.72;73.02
7178;BME280;3630;42.146;24.756;2023-02-17T06:01:37;100351.75;;;2.59;74.05
7178;BME280;3630;42.146;24.756;2023-02-17T06:04:03;100354.06;;;2.69;73.87
7178;BME280;3630;42.146;24.756;2023-02-17T06:06:30;100354.91;;;2.69;73.49
7178;BME280;3630;42.146;24.756;2023-02-17T06:08:57;100364.41;;;2.72;73.30
7178;BME280;3630;42.146;24.756;2023-02-17T06:11:25;100366.94;;;2.72;72.87
7178;BME280;3630;42.146;24.756;2023-02-17T06:13:52;100363.28;;;2.81;73.17
7178;BME280;3630;42.146;24.756;2023-02-17T06:16:19;100363.84;;;2.90;72.99
7178;BME280;3630;42.146;24.756;2023-02-17T06:18:46;100355.91;;;2.99;72.87
7178;BME280;3630;42.146;24.756;2023-02-17T06:21:12;100372.75;;;3.12;72.80
7178;BME280;3630;42.146;24.756;2023-02-17T06:23:39;100367.00;;;3.29;72.43
7178;BME280;3630;42.146;24.756;2023-02-17T06:26:06;100356.94;;;3.45;72.01
7178;BME280;3630;42.146;24.756;2023-02-17T06:28:34;100371.75;;;3.67;71.01
7178;BME280;3630;42.146;24.756;2023-02-17T06:31:01;100365.53;;;3.76;70.33
7178;BME280;3630;42.146;24.756;2023-02-17T06:33:28;100363.50;;;3.85;69.51
7178;BME280;3630;42.146;24.756;2023-02-17T06:35:55;100364.19;;;3.97;69.42
7178;BME280;3630;42.146;24.756;2023-02-17T06:38:21;100376.78;;;4.10;69.05
7178;BME280;3630;42.146;24.756;2023-02-17T06:40:48;100363.31;;;4.11;68.06
7178;BME280;3630;42.146;24.756;2023-02-17T06:43:15;100374.44;;;4.13;67.90
7178;BME280;3630;42.146;24.756;2023-02-17T06:45:43;100365.72;;;4.25;67.42
7178;BME280;3630;42.146;24.756;2023-02-17T06:48:10;100367.09;;;4.34;67.55
7178;BME280;3630;42.146;24.756;2023-02-17T06:50:38;100364.50;;;4.49;66.36
7178;BME280;3630;42.146;24.756;2023-02-17T06:53:06;100361.25;;;4.51;66.67
7178;BME280;3630;42.146;24.756;2023-02-17T06:55:33;100382.47;;;4.21;66.63
7178;BME280;3630;42.146;24.756;2023-02-17T06:58:01;100371.72;;;4.10;67.58
7178;BME280;3630;42.146;24.756;2023-02-17T07:00:28;100378.34;;;4.23;67.62
7178;BME280;3630;42.146;24.756;2023-02-17T07:02:56;100375.13;;;4.26;67.21
7178;BME280;3630;42.146;24.756;2023-02-17T07:05:23;100385.72;;;4.18;67.27
7178;BME280;3630;42.146;24.756;2023-02-17T07:07:50;100385.78;;;3.89;68.26
7178;BME280;3630;42.146;24.756;2023-02-17T07:10:18;100362.47;;;3.82;68.79
7178;BME280;3630;42.146;24.756;2023-02-17T07:12:44;100374.00;;;4.06;68.95
7178;BME280;3630;42.146;24.756;2023-02-17T07:15:11;100368.25;;;4.25;68.36
7178;BME280;3630;42.146;24.756;2023-02-17T07:17:39;100374.28;;;4.41;67.21
7178;BME280;3630;42.146;24.756;2023-02-17T07:20:08;100381.22;;;4.60;67.06
7178;BME280;3630;42.146;24.756;2023-02-17T07:22:35;100368.84;;;4.66;66.73
7178;BME280;3630;42.146;24.756;2023-02-17T07:25:02;100372.81;;;4.77;65.71
7178;BME280;3630;42.146;24.756;2023-02-17T07:27:29;100362.25;;;4.86;65.04
7178;BME280;3630;42.146;24.756;2023-02-17T07:29:56;100367.91;;;4.96;65.74
7178;BME280;3630;42.146;24.756;2023-02-17T07:32:22;100364.00;;;5.03;64.97
7178;BME280;3630;42.146;24.756;2023-02-17T07:34:49;100367.91;;;5.12;64.80
7178;BME280;3630;42.146;24.756;2023-02-17T07:37:17;100369.09;;;5.19;64.20
7178;BME280;3630;42.146;24.756;2023-02-17T07:39:46;100366.06;;;5.10;63.79
7178;BME280;3630;42.146;24.756;2023-02-17T07:42:13;100371.00;;;5.07;64.05
7178;BME280;3630;42.146;24.756;2023-02-17T07:44:40;100370.78;;;5.18;64.21
7178;BME280;3630;42.146;24.756;2023-02-17T07:47:07;100367.97;;;5.30;63.43
7178;BME280;3630;42.146;24.756;2023-02-17T07:49:34;100374.81;;;5.31;63.45
7178;BME280;3630;42.146;24.756;2023-02-17T07:52:00;100379.44;;;5.38;63.36
7178;BME280;3630;42.146;24.756;2023-02-17T07:54:28;100371.59;;;5.51;63.21
7178;BME280;3630;42.146;24.756;2023-02-17T07:56:55;100372.19;;;5.63;62.34
7178;BME280;3630;42.146;24.756;2023-02-17T07:59:22;100389.19;;;5.80;61.90
7178;BME280;3630;42.146;24.756;2023-02-17T08:01:49;100379.72;;;5.94;61.07
7178;BME280;3630;42.146;24.756;2023-02-17T08:04:16;100385.09;;;6.00;60.35
7178;BME280;3630;42.146;24.756;2023-02-17T08:06:43;100377.19;;;6.12;60.60
7178;BME280;3630;42.146;24.756;2023-02-17T08:09:10;100378.63;;;6.24;59.88
7178;BME280;3630;42.146;24.756;2023-02-17T08:11:56;100376.66;;;6.36;59.00
7178;BME280;3630;42.146;24.756;2023-02-17T08:14:39;100367.53;;;6.41;58.83
7178;BME280;3630;42.146;24.756;2023-02-17T08:17:06;100378.81;;;6.46;60.06
7178;BME280;3630;42.146;24.756;2023-02-17T08:19:33;100369.09;;;6.57;59.66
7178;BME280;3630;42.146;24.756;2023-02-17T08:22:00;100371.88;;;6.62;58.83
7178;BME280;3630;42.146;24.756;2023-02-17T08:24:28;100380.41;;;6.62;58.74
7178;BME280;3630;42.146;24.756;2023-02-17T08:26:56;100378.22;;;6.52;58.05
7178;BME280;3630;42.146;24.756;2023-02-17T08:29:22;100387.91;;;6.40;58.68
7178;BME280;3630;42.146;24.756;2023-02-17T08:31:51;100379.34;;;6.22;60.51
7178;BME280;3630;42.146;24.756;2023-02-17T08:34:19;100385.09;;;6.00;60.65
7178;BME280;3630;42.146;24.756;2023-02-17T08:36:45;100384.75;;;5.92;61.51
7178;BME280;3630;42.146;24.756;2023-02-17T08:39:14;100376.56;;;6.00;61.53
7178;BME280;3630;42.146;24.756;2023-02-17T08:41:42;100341.44;;;5.94;60.61
7178;BME280;3630;42.146;24.756;2023-02-17T08:44:13;100374.25;;;6.39;60.86
7178;BME280;3630;42.146;24.756;2023-02-17T08:46:40;100377.19;;;6.66;59.32
7178;BME280;3630;42.146;24.756;2023-02-17T08:49:07;100364.91;;;6.77;57.89
7178;BME280;3630;42.146;24.756;2023-02-17T08:51:34;100369.84;;;6.91;57.63
7178;BME280;3630;42.146;24.756;2023-02-17T08:54:03;100374.81;;;7.07;56.51
7178;BME280;3630;42.146;24.756;2023-02-17T08:56:31;100368.91;;;7.08;57.19
7178;BME280;3630;42.146;24.756;2023-02-17T08:58:58;100375.56;;;7.24;56.33
7178;BME280;3630;42.146;24.756;2023-02-17T09:01:26;100379.72;;;7.41;55.98
7178;BME280;3630;42.146;24.756;2023-02-17T09:03:55;100371.00;;;7.57;55.27
7178;BME280;3630;42.146;24.756;2023-02-17T09:06:22;100368.22;;;7.71;54.83
7178;BME280;3630;42.146;24.756;2023-02-17T09:08:49;100339.19;;;7.71;55.42
7178;BME280;3630;42.146;24.756;2023-02-17T09:11:16;100365.41;;;8.07;54.50
7178;BME280;3630;42.146;24.756;2023-02-17T09:13:45;100364.63;;;8.30;53.32
7178;BME280;3630;42.146;24.756;2023-02-17T09:16:12;100351.28;;;8.37;52.89
7178;BME280;3630;42.146;24.756;2023-02-17T09:18:41;100350.13;;;8.51;52.75
7178;BME280;3630;42.146;24.756;2023-02-17T09:21:10;100347.00;;;8.60;52.63
7178;BME280;3630;42.146;24.756;2023-02-17T09:23:37;100340.66;;;8.72;51.91
7178;BME280;3630;42.146;24.756;2023-02-17T09:26:06;100343.78;;;8.87;51.57
7178;BME280;3630;42.146;24.756;2023-02-17T09:28:35;100342.78;;;9.06;50.71
7178;BME280;3630;42.146;24.756;2023-02-17T09:31:07;100342.75;;;9.30;49.78
7178;BME280;3630;42.146;24.756;2023-02-17T09:33:35;100338.09;;;9.69;47.73
7178;BME280;3630;42.146;24.756;2023-02-17T09:36:03;100339.34;;;10.08;43.90
7178;BME280;3630;42.146;24.756;2023-02-17T09:38:30;100324.59;;;10.84;40.54
7178;BME280;3630;42.146;24.756;2023-02-17T09:41:00;100327.88;;;11.41;37.35
7178;BME280;3630;42.146;24.756;2023-02-17T09:43:30;100324.31;;;12.03;35.25
7178;BME280;3630;42.146;24.756;2023-02-17T09:46:00;100320.31;;;12.16;34.94
7178;BME280;3630;42.146;24.756;2023-02-17T09:48:29;100318.50;;;12.49;33.17
7178;BME280;3630;42.146;24.756;2023-02-17T09:50:59;100324.94;;;12.69;33.19
7178;BME280;3630;42.146;24.756;2023-02-17T09:53:32;100318.53;;;12.91;32.26
7178;BME280;3630;42.146;24.756;2023-02-17T09:56:03;100284.38;;;13.04;32.20
7178;BME280;3630;42.146;24.756;2023-02-17T09:58:35;100307.47;;;13.41;31.54
7178;BME280;3630;42.146;24.756;2023-02-17T10:01:07;100306.22;;;13.68;31.35
7178;BME280;3630;42.146;24.756;2023-02-17T10:03:38;100308.09;;;13.79;31.28
7178;BME280;3630;42.146;24.756;2023-02-17T10:06:12;100270.28;;;13.83;30.91
7178;BME280;3630;42.146;24.756;2023-02-17T10:08:47;100288.00;;;14.14;30.36
7178;BME280;3630;42.146;24.756;2023-02-17T10:11:20;100270.13;;;14.31;29.92
7178;BME280;3630;42.146;24.756;2023-02-17T10:13:49;100284.22;;;14.49;29.62
7178;BME280;3630;42.146;24.756;2023-02-17T10:16:20;100266.34;;;14.69;29.51
7178;BME280;3630;42.146;24.756;2023-02-17T10:18:53;100263.06;;;14.84;29.50
7178;BME280;3630;42.146;24.756;2023-02-17T10:21:26;100258.03;;;14.96;28.93
7178;BME280;3630;42.146;24.756;2023-02-17T10:23:55;100255.63;;;15.12;28.18
7178;BME280;3630;42.146;24.756;2023-02-17T10:26:32;100253.09;;;15.20;28.26
7178;BME280;3630;42.146;24.756;2023-02-17T10:29:12;100250.63;;;15.32;28.06
7178;BME280;3630;42.146;24.756;2023-02-17T10:31:43;100247.22;;;15.34;27.73
7178;BME280;3630;42.146;24.756;2023-02-17T10:34:15;100248.09;;;15.41;28.00
7178;BME280;3630;42.146;24.756;2023-02-17T10:36:50;100250.00;;;15.56;27.52
7178;BME280;3630;42.146;24.756;2023-02-17T10:39:32;100247.50;;;15.65;27.56
7178;BME280;3630;42.146;24.756;2023-02-17T10:42:02;100246.72;;;15.73;27.43
7178;BME280;3630;42.146;24.756;2023-02-17T10:44:30;100234.66;;;15.78;27.49
7178;BME280;3630;42.146;24.756;2023-02-17T10:46:59;100245.06;;;15.89;27.30
7178;BME280;3630;42.146;24.756;2023-02-17T10:49:29;100233.06;;;16.02;26.73
7178;BME280;3630;42.146;24.756;2023-02-17T10:52:00;100232.25;;;16.13;26.42
7178;BME280;3630;42.146;24.756;2023-02-17T10:54:32;100228.84;;;16.22;26.07
7178;BME280;3630;42.146;24.756;2023-02-17T10:57:04;100221.97;;;16.25;25.89
7178;BME280;3630;42.146;24.756;2023-02-17T10:59:37;100228.88;;;16.26;25.95
7178;BME280;3630;42.146;24.756;2023-02-17T11:02:15;100213.34;;;16.31;25.57
7178;BME280;3630;42.146;24.756;2023-02-17T11:04:44;100209.09;;;16.42;25.66
7178;BME280;3630;42.146;24.756;2023-02-17T11:07:14;100207.41;;;16.55;25.61
7178;BME280;3630;42.146;24.756;2023-02-17T11:09:46;100198.81;;;16.71;25.12
7178;BME280;3630;42.146;24.756;2023-02-17T11:12:17;100206.63;;;16.77;25.30
7178;BME280;3630;42.146;24.756;2023-02-17T11:14:48;100202.31;;;16.80;24.68
7178;BME280;3630;42.146;24.756;2023-02-17T11:17:19;100199.72;;;16.83;24.84
7178;BME280;3630;42.146;24.756;2023-02-17T11:19:58;100189.34;;;16.83;25.10
7178;BME280;3630;42.146;24.756;2023-02-17T11:22:33;100190.22;;;16.91;25.05
7178;BME280;3630;42.146;24.756;2023-02-17T11:25:04;100186.78;;;17.01;24.88
7178;BME280;3630;42.146;24.756;2023-02-17T11:27:31;100177.25;;;17.06;24.64
7178;BME280;3630;42.146;24.756;2023-02-17T11:30:07;100180.72;;;17.11;24.84
7178;BME280;3630;42.146;24.756;2023-02-17T11:32:40;100175.53;;;17.24;24.71
7178;BME280;3630;42.146;24.756;2023-02-17T11:35:19;100167.75;;;17.19;25.17
7178;BME280;3630;42.146;24.756;2023-02-17T11:37:47;100162.53;;;17.31;24.56
7178;BME280;3630;42.146;24.756;2023-02-17T11:40:23;100171.19;;;17.45;23.22
7178;BME280;3630;42.146;24.756;2023-02-17T11:42:55;100166.03;;;17.47;22.46
7178;BME280;3630;42.146;24.756;2023-02-17T11:45:25;100170.38;;;17.57;22.20
7178;BME280;3630;42.146;24.756;2023-02-17T11:48:03;100161.69;;;17.67;21.76
7178;BME280;3630;42.146;24.756;2023-02-17T11:50:39;100176.41;;;17.74;21.82
7178;BME280;3630;42.146;24.756;2023-02-17T11:53:21;100170.28;;;17.83;21.15
7178;BME280;3630;42.146;24.756;2023-02-17T11:56:00;100160.81;;;17.77;20.72
7178;BME280;3630;42.146;24.756;2023-02-17T11:58:39;100166.84;;;17.85;20.29
7178;BME280;3630;42.146;24.756;2023-02-17T12:01:35;100162.50;;;17.83;20.38
7178;BME280;3630;42.146;24.756;2023-02-17T12:04:20;100145.16;;;17.89;20.75
7178;BME280;3630;42.146;24.756;2023-02-17T12:09:58;100152.13;;;17.80;21.26
7178;BME280;3630;42.146;24.756;2023-02-17T12:12:37;100141.72;;;17.75;21.58
7178;BME280;3630;42.146;24.756;2023-02-17T12:15:26;100135.66;;;17.78;21.33
7178;BME280;3630;42.146;24.756;2023-02-17T12:18:05;100138.25;;;17.82;20.86
7178;BME280;3630;42.146;24.756;2023-02-17T12:20:40;100138.25;;;17.87;20.63
7178;BME280;3630;42.146;24.756;2023-02-17T12:23:30;100131.31;;;17.78;20.87
7178;BME280;3630;42.146;24.756;2023-02-17T12:26:05;100130.44;;;17.84;20.58
7178;BME280;3630;42.146;24.756;2023-02-17T12:29:00;100137.38;;;17.86;20.79
7178;BME280;3630;42.146;24.756;2023-02-17T12:31:43;100135.66;;;17.85;21.20
7178;BME280;3630;42.146;24.756;2023-02-17T12:34:18;100129.59;;;17.88;21.47
7178;BME280;3630;42.146;24.756;2023-02-17T12:36:48;100133.00;;;18.00;19.47
7178;BME280;3630;42.146;24.756;2023-02-17T12:39:19;100126.94;;;17.97;19.44
7178;BME280;3630;42.146;24.756;2023-02-17T12:41:50;100122.63;;;17.91;19.56
7178;BME280;3630;42.146;24.756;2023-02-17T12:44:25;100117.41;;;17.96;19.85
7178;BME280;3630;42.146;24.756;2023-02-17T12:46:56;100084.50;;;17.89;20.05
7178;BME280;3630;42.146;24.756;2023-02-17T12:49:30;100107.84;;;18.02;20.36
7178;BME280;3630;42.146;24.756;2023-02-17T12:52:03;100107.84;;;18.10;20.53
7178;BME280;3630;42.146;24.756;2023-02-17T12:54:38;100107.84;;;18.07;20.70
7178;BME280;3630;42.146;24.756;2023-02-17T12:57:13;100108.66;;;18.10;20.42
7178;BME280;3630;42.146;24.756;2023-02-17T12:59:43;100102.56;;;18.16;20.58
7178;BME280;3630;42.146;24.756;2023-02-17T13:02:12;100101.75;;;18.12;20.92
7178;BME280;3630;42.146;24.756;2023-02-17T13:04:40;100113.81;;;18.22;20.41
7178;BME280;3630;42.146;24.756;2023-02-17T13:07:22;100097.34;;;18.19;19.73
7178;BME280;3630;42.146;24.756;2023-02-17T13:09:53;100116.44;;;18.21;19.93
7178;BME280;3630;42.146;24.756;2023-02-17T13:12:37;100126.81;;;18.25;19.71
7178;BME280;3630;42.146;24.756;2023-02-17T13:15:26;100116.44;;;18.22;19.49
7178;BME280;3630;42.146;24.756;2023-02-17T13:17:55;100128.56;;;18.25;19.50
7178;BME280;3630;42.146;24.756;2023-02-17T13:23:36;100116.44;;;18.16;20.46
7178;BME280;3630;42.146;24.756;2023-02-17T13:26:25;100120.78;;;18.20;20.49
7178;BME280;3630;42.146;24.756;2023-02-17T13:29:05;100111.22;;;18.25;20.72